Time;durP1;ratioP1;P1;durP2;ratioP2;P2;SDS_P1;SDS_P2;PMS_P1;PMS_P2;Temp;Humidity;BMP_temperature;BMP_pressure;BME280_temperature;BME280_humidity;BME280_pressure;Samples;Min_cycle;Max_cycle;Signal;HPM_P1;HPM_P2
2022/05/16 00:00:12;;;;;;;2.70;1.60;;;;;;;24.52;47.39;99312.69;5129709;27;20147;-64
2022/05/16 00:02:38;;;;;;;2.25;1.55;;;;;;;24.52;47.32;99310.69;5132636;27;20055;-65
2022/05/16 00:05:04;;;;;;;2.80;1.52;;;;;;;24.50;47.41;99315.88;5133299;27;20050;-64
2022/05/16 00:07:30;;;;;;;2.15;1.52;;;;;;;24.51;47.40;99323.09;5133035;27;20081;-58
2022/05/16 00:09:55;;;;;;;2.00;1.45;;;;;;;24.52;47.36;99323.88;5133120;27;20070;-64
2022/05/16 00:12:20;;;;;;;1.90;1.20;;;;;;;24.51;47.36;99317.50;5133089;27;20185;-65
2022/05/16 00:14:46;;;;;;;2.03;1.40;;;;;;;24.52;47.30;99316.28;5132973;27;20073;-64
2022/05/16 00:17:13;;;;;;;2.15;1.35;;;;;;;24.51;47.24;99325.09;5132673;27;20043;-64
2022/05/16 00:19:40;;;;;;;2.20;1.27;;;;;;;24.49;47.52;99319.88;5132969;27;20031;-65
2022/05/16 00:22:06;;;;;;;1.90;1.35;;;;;;;24.47;47.62;99321.47;5132867;27;20044;-64
2022/05/16 00:24:32;;;;;;;2.17;1.50;;;;;;;24.47;47.21;99319.47;5132535;27;20047;-58
2022/05/16 00:26:58;;;;;;;2.33;1.63;;;;;;;24.49;47.18;99316.28;5132795;27;20039;-59
2022/05/16 00:29:24;;;;;;;2.30;1.40;;;;;;;24.46;47.17;99308.72;5132881;27;20047;-58
2022/05/16 00:31:50;;;;;;;2.17;1.45;;;;;;;24.47;47.13;99315.88;5132548;27;20086;-58
2022/05/16 00:34:15;;;;;;;2.20;1.40;;;;;;;24.47;47.27;99322.28;5132603;27;20100;-58
2022/05/16 00:36:47;;;;;;;2.08;1.40;;;;;;;24.46;47.26;99312.31;5132492;27;20043;-58
2022/05/16 00:39:17;;;;;;;2.10;1.40;;;;;;;24.45;47.26;99316.28;5132497;27;20051;-58
2022/05/16 00:41:43;;;;;;;2.30;1.40;;;;;;;24.45;47.20;99307.91;5132440;27;20039;-64
2022/05/16 00:44:10;;;;;;;2.35;1.60;;;;;;;24.46;47.26;99303.91;5132618;27;20130;-58
2022/05/16 00:46:35;;;;;;;2.70;1.60;;;;;;;24.45;47.26;99307.13;5132785;27;20039;-58
2022/05/16 00:49:03;;;;;;;2.13;1.38;;;;;;;24.44;47.34;99309.13;5132431;27;20134;-58
2022/05/16 00:51:41;;;;;;;2.20;1.50;;;;;;;24.43;47.20;99301.91;5132435;27;20051;-58
2022/05/16 00:54:16;;;;;;;1.90;1.40;;;;;;;24.42;47.21;99309.50;5132392;27;20054;-58
2022/05/16 00:56:44;;;;;;;2.30;1.58;;;;;;;24.43;47.30;99304.69;5132424;27;20164;-58
2022/05/16 00:59:09;;;;;;;2.38;1.50;;;;;;;24.42;47.31;99309.50;5132245;27;20039;-58
2022/05/16 01:07:04;;;;;;;1.92;1.38;;;;;;;24.40;47.16;99311.91;5121182;27;20093;-58
2022/05/16 01:09:30;;;;;;;1.90;1.40;;;;;;;24.41;47.31;99307.09;5091355;28;20036;-58
2022/05/16 01:11:56;;;;;;;2.50;1.65;;;;;;;24.43;47.45;99315.88;5090918;28;20530;-58
2022/05/16 01:14:43;;;;;;;2.17;1.48;;;;;;;24.40;47.29;99306.31;5090307;28;20502;-58
2022/05/16 01:17:10;;;;;;;2.00;1.40;;;;;;;24.42;47.25;99301.09;5090997;28;20101;-58
2022/05/16 01:19:35;;;;;;;2.33;1.60;;;;;;;24.43;47.36;99307.50;5091012;28;20044;-58
2022/05/16 01:22:13;;;;;;;2.50;1.50;;;;;;;24.41;47.32;99302.31;5091327;28;20537;-58
2022/05/16 01:24:40;;;;;;;2.70;1.70;;;;;;;24.40;47.46;99303.50;5091120;28;20052;-59
2022/05/16 01:27:05;;;;;;;2.38;1.58;;;;;;;24.40;47.25;99278.34;5090912;28;20040;-58
2022/05/16 01:29:31;;;;;;;2.17;1.58;;;;;;;24.39;47.43;99289.94;5090982;28;20530;-58
2022/05/16 01:31:56;;;;;;;1.77;1.35;;;;;;;24.39;47.39;99295.53;5090818;28;20044;-58
2022/05/16 01:34:22;;;;;;;1.92;1.45;;;;;;;24.39;47.46;99301.13;5090764;28;20036;-58
2022/05/16 01:36:47;;;;;;;1.98;1.45;;;;;;;24.40;47.33;99291.53;5090898;28;20047;-58
2022/05/16 01:39:12;;;;;;;2.30;1.30;;;;;;;24.40;47.45;99288.75;5090613;28;20044;-58
2022/05/16 01:41:38;;;;;;;2.05;1.45;;;;;;;24.37;47.38;99281.16;5090718;28;20048;-58
2022/05/16 01:44:04;;;;;;;2.15;1.52;;;;;;;24.38;47.34;99289.16;5090632;28;20079;-58
2022/05/16 01:46:36;;;;;;;2.00;1.40;;;;;;;24.39;47.45;99292.75;5090701;28;20036;-58
2022/05/16 01:49:03;;;;;;;2.08;1.60;;;;;;;24.39;47.45;99293.53;5073367;28;20511;-58
2022/05/16 01:51:29;;;;;;;2.13;1.50;;;;;;;24.37;47.53;99295.16;5090401;28;20049;-58
2022/05/16 01:53:55;;;;;;;1.83;1.35;;;;;;;24.38;47.33;99296.75;5090605;28;20052;-58
2022/05/16 01:56:22;;;;;;;2.10;1.33;;;;;;;24.37;47.39;99295.94;5090629;28;20105;-58
2022/05/16 01:58:48;;;;;;;2.38;1.52;;;;;;;24.37;47.44;99309.13;5090550;28;20457;-58
2022/05/16 02:01:14;;;;;;;2.20;1.55;;;;;;;24.38;47.43;99302.34;5090418;28;20063;-58
2022/05/16 02:03:41;;;;;;;2.05;1.50;;;;;;;24.37;47.53;99300.75;5090262;28;20044;-58
2022/05/16 02:06:07;;;;;;;2.30;1.50;;;;;;;24.36;47.51;99310.31;5090362;28;20052;-58
2022/05/16 02:08:33;;;;;;;1.90;1.30;;;;;;;24.37;47.48;99311.91;5090258;28;20055;-58
2022/05/16 02:11:00;;;;;;;2.17;1.60;;;;;;;24.37;47.05;99329.50;5090437;28;20578;-58
2022/05/16 02:13:26;;;;;;;1.83;1.27;;;;;;;24.37;46.82;99323.91;5090308;28;20040;-58
2022/05/16 02:15:51;;;;;;;2.20;1.42;;;;;;;24.35;46.59;99320.69;5090461;28;20055;-58
2022/05/16 02:18:17;;;;;;;3.00;1.60;;;;;;;24.36;46.60;99316.72;5090174;28;20388;-58
2022/05/16 02:20:43;;;;;;;1.92;1.30;;;;;;;24.35;46.27;99317.88;5090065;28;20048;-58
2022/05/16 02:25:55;;;;;;;2.50;1.50;;;;;;;24.37;45.85;99323.09;5090433;28;20113;-58
2022/05/16 02:28:22;;;;;;;1.85;1.25;;;;;;;24.35;46.11;99328.28;5090307;28;20747;-58
2022/05/16 02:30:48;;;;;;;1.88;1.38;;;;;;;24.34;46.24;99321.88;5089898;28;20411;-58
2022/05/16 02:33:16;;;;;;;2.67;1.60;;;;;;;24.32;46.17;99338.25;5089981;28;20119;-58
2022/05/16 02:35:43;;;;;;;1.60;1.20;;;;;;;24.31;46.30;99333.06;5089887;28;20044;-58
2022/05/16 02:38:10;;;;;;;2.05;1.30;;;;;;;24.33;46.20;99336.28;5090021;28;20389;-58
2022/05/16 02:40:36;;;;;;;2.17;1.50;;;;;;;24.33;46.04;99348.25;5090153;28;20521;-58
2022/05/16 02:43:02;;;;;;;1.90;1.20;;;;;;;24.33;46.45;99339.06;5089779;28;20463;-58
2022/05/16 02:45:30;;;;;;;2.65;1.35;;;;;;;24.32;46.10;99349.44;5089677;28;20412;-58
2022/05/16 02:47:56;;;;;;;2.05;1.40;;;;;;;24.33;46.18;99365.03;5089720;28;20056;-58
2022/05/16 02:50:23;;;;;;;1.75;1.30;;;;;;;24.34;46.25;99365.81;5089586;28;20127;-58
2022/05/16 02:52:49;;;;;;;2.45;1.48;;;;;;;24.34;46.32;99357.44;5089536;28;20915;-59
2022/05/16 02:55:15;;;;;;;2.30;1.42;;;;;;;24.33;46.55;99364.22;5089719;28;20040;-59
2022/05/16 02:57:40;;;;;;;2.08;1.38;;;;;;;24.32;46.43;99373.78;5089720;28;20040;-58
2022/05/16 03:00:09;;;;;;;2.10;1.30;;;;;;;24.31;46.58;99370.19;5089534;28;20040;-58
2022/05/16 03:02:35;;;;;;;2.33;1.42;;;;;;;24.31;46.52;99375.00;5089520;28;20048;-64
2022/05/16 03:05:01;;;;;;;2.03;1.40;;;;;;;24.34;46.36;99374.22;5089624;28;20102;-64
2022/05/16 03:07:27;;;;;;;2.42;1.63;;;;;;;24.33;46.38;99384.59;5089631;28;20044;-65
2022/05/16 03:09:52;;;;;;;1.98;1.40;;;;;;;24.35;46.38;99378.59;5089326;28;20119;-64
2022/05/16 03:12:18;;;;;;;1.92;1.25;;;;;;;24.33;46.43;99381.78;5089314;28;20040;-64
2022/05/16 03:14:43;;;;;;;2.38;1.50;;;;;;;24.34;46.26;99375.00;5089387;28;20036;-64
2022/05/16 03:17:09;;;;;;;2.65;1.73;;;;;;;24.34;46.51;99375.00;5089106;28;20044;-58
2022/05/16 03:19:35;;;;;;;2.00;1.40;;;;;;;24.35;46.55;99381.38;5089064;28;20050;-58
2022/05/16 03:22:02;;;;;;;2.95;1.58;;;;;;;24.33;46.52;99378.19;5089276;28;20048;-58
2022/05/16 03:24:28;;;;;;;1.98;1.27;;;;;;;24.33;46.59;99375.41;5089200;28;20090;-64
2022/05/16 03:26:53;;;;;;;2.08;1.40;;;;;;;24.35;46.35;99381.38;5089256;28;20960;-64
2022/05/16 03:29:18;;;;;;;2.08;1.33;;;;;;;24.33;46.39;99378.19;5089131;28;20119;-64
2022/05/16 03:31:44;;;;;;;2.03;1.30;;;;;;;24.33;46.53;99367.03;5089046;28;20044;-58
2022/05/16 03:34:11;;;;;;;2.10;1.40;;;;;;;24.33;46.44;99379.00;5089209;28;20098;-58
2022/05/16 03:36:36;;;;;;;2.00;1.45;;;;;;;24.34;46.72;99377.00;5090824;28;20059;-58
2022/05/16 03:41:48;;;;;;;2.30;1.30;;;;;;;24.31;46.54;99380.56;5091318;28;20136;-58
2022/05/16 03:44:13;;;;;;;2.22;1.40;;;;;;;24.32;46.67;99394.16;5092700;28;20127;-58
2022/05/16 03:46:38;;;;;;;2.10;1.55;;;;;;;24.31;46.67;99386.16;5092630;28;20075;-58
2022/05/16 03:49:05;;;;;;;2.10;1.48;;;;;;;24.31;46.61;99391.75;5092608;28;20090;-64
2022/05/16 03:51:30;;;;;;;2.10;1.45;;;;;;;24.28;46.68;99400.94;5092521;28;20085;-64
2022/05/16 03:53:56;;;;;;;2.15;1.50;;;;;;;24.28;46.59;99403.72;5092458;28;20048;-64
2022/05/16 03:56:25;;;;;;;2.15;1.38;;;;;;;24.27;46.44;99402.13;5092545;28;20044;-64
2022/05/16 03:58:51;;;;;;;1.83;1.30;;;;;;;24.25;46.42;99407.31;5092445;28;20059;-64
2022/05/16 04:01:17;;;;;;;2.03;1.23;;;;;;;24.25;46.47;99402.53;5092228;28;20036;-64
2022/05/16 04:03:44;;;;;;;2.25;1.50;;;;;;;24.26;46.50;99409.72;5092111;28;20048;-64
2022/05/16 04:06:09;;;;;;;2.45;1.42;;;;;;;24.25;46.15;99412.91;5092016;28;20067;-64
2022/05/16 04:08:35;;;;;;;2.30;1.45;;;;;;;24.24;46.15;99420.50;5092103;28;20074;-64
2022/05/16 04:11:02;;;;;;;1.90;1.30;;;;;;;24.23;46.17;99426.50;5092014;28;20040;-64
2022/05/16 04:13:28;;;;;;;2.13;1.30;;;;;;;24.23;46.28;99429.28;5092186;28;20046;-64
2022/05/16 04:15:54;;;;;;;1.75;1.20;;;;;;;24.22;45.79;99427.66;5092120;28;20515;-64
2022/05/16 04:18:19;;;;;;;1.90;1.30;;;;;;;24.21;45.51;99428.88;5091796;28;20051;-64
2022/05/16 04:20:45;;;;;;;1.88;1.40;;;;;;;24.20;45.05;99430.06;5091770;28;20127;-64
2022/05/16 04:23:11;;;;;;;2.35;1.35;;;;;;;24.19;45.21;99445.25;5092190;28;20063;-64
2022/05/16 04:25:39;;;;;;;2.00;1.10;;;;;;;24.17;45.38;99440.84;5091937;28;20044;-64
2022/05/16 04:28:06;;;;;;;1.83;1.13;;;;;;;24.16;45.16;99441.25;5091962;28;20052;-64
2022/05/16 04:30:31;;;;;;;1.92;1.08;;;;;;;24.19;45.06;99456.44;5091771;28;20036;-64
2022/05/16 04:32:57;;;;;;;1.80;1.13;;;;;;;24.19;45.04;99464.81;5091852;28;20048;-58
2022/05/16 04:35:22;;;;;;;2.08;1.23;;;;;;;24.17;45.04;99466.00;5091733;28;20519;-58
2022/05/16 04:37:48;;;;;;;2.00;1.33;;;;;;;24.14;45.05;99472.38;5091789;28;20089;-58
2022/05/16 04:40:14;;;;;;;2.10;1.10;;;;;;;24.14;45.07;99488.34;5091669;28;20203;-58
2022/05/16 04:42:40;;;;;;;2.08;1.38;;;;;;;24.12;45.10;99485.97;5091654;28;20086;-58
2022/05/16 04:45:14;;;;;;;1.85;1.10;;;;;;;24.11;45.23;99491.94;5091739;28;20051;-64
2022/05/16 04:47:40;;;;;;;2.25;1.38;;;;;;;24.13;45.24;99492.34;5090484;28;20454;-64
2022/05/16 04:50:07;;;;;;;1.67;1.10;;;;;;;24.13;45.19;99498.72;5091542;28;20048;-64
2022/05/16 04:52:32;;;;;;;2.40;1.40;;;;;;;24.14;45.42;99491.16;5091560;28;20099;-64
2022/05/16 04:54:59;;;;;;;2.28;1.30;;;;;;;24.14;45.32;99503.13;5091462;28;20455;-64
2022/05/16 04:57:25;;;;;;;2.03;1.30;;;;;;;24.15;45.33;99504.75;5091437;28;20040;-64
2022/05/16 04:59:51;;;;;;;1.95;1.35;;;;;;;24.16;45.55;99516.72;5091314;28;20077;-58
2022/05/16 05:02:17;;;;;;;2.08;1.30;;;;;;;24.15;45.59;99524.31;5091388;28;20047;-58
2022/05/16 05:04:43;;;;;;;2.45;1.20;;;;;;;24.15;45.55;99517.91;5091399;28;20081;-58
2022/05/16 05:07:09;;;;;;;1.80;1.20;;;;;;;24.16;45.87;99520.31;5091252;28;20047;-58
2022/05/16 05:14:31;;;;;;;1.80;1.15;;;;;;;24.17;45.78;99526.69;5091485;28;20530;-58
2022/05/16 05:15:08;;;;;;;2.20;1.40;;;;;;;24.19;46.15;99526.31;5091229;28;20475;-58
2022/05/16 05:17:34;;;;;;;1.90;1.30;;;;;;;24.17;45.94;99530.28;5090883;28;20048;-58
2022/05/16 05:19:59;;;;;;;1.73;1.10;;;;;;;24.18;46.05;99536.69;5090981;28;20044;-64
2022/05/16 05:22:25;;;;;;;6.18;1.40;;;;;;;24.17;46.32;99547.06;5090996;28;20408;-64
2022/05/16 05:24:50;;;;;;;2.45;1.35;;;;;;;24.17;46.54;99551.84;5090916;28;20048;-65
2022/05/16 05:27:15;;;;;;;2.20;1.35;;;;;;;24.17;46.58;99551.84;5091121;28;20130;-58
2022/05/16 05:29:41;;;;;;;2.35;1.58;;;;;;;24.15;46.68;99557.84;5090839;28;20044;-58
2022/05/16 05:32:07;;;;;;;2.33;1.45;;;;;;;24.16;47.08;99550.25;5090785;28;20463;-58
2022/05/16 05:34:34;;;;;;;2.30;1.30;;;;;;;24.15;47.00;99552.25;5090890;28;20047;-64
2022/05/16 05:37:00;;;;;;;2.25;1.33;;;;;;;24.13;47.19;99554.63;5090750;28;20523;-64
2022/05/16 05:39:26;;;;;;;2.25;1.30;;;;;;;24.15;47.16;99563.44;5090786;28;20040;-64
2022/05/16 05:41:52;;;;;;;2.10;1.35;;;;;;;24.12;46.95;99564.19;5090675;28;20040;-65
2022/05/16 05:44:17;;;;;;;1.90;1.17;;;;;;;24.16;46.94;99565.03;5090546;28;20067;-64
2022/05/16 05:46:42;;;;;;;1.83;1.20;;;;;;;24.16;47.08;99559.44;5090837;28;20547;-64
2022/05/16 05:49:12;;;;;;;1.85;1.10;;;;;;;24.15;47.14;99569.03;5090488;28;20257;-64
2022/05/16 05:51:38;;;;;;;1.80;1.10;;;;;;;24.17;47.15;99571.41;5090524;28;20423;-64
2022/05/16 05:54:07;;;;;;;23.52;2.97;;;;;;;24.18;47.09;99575.81;5090568;28;20048;-64
2022/05/16 05:56:33;;;;;;;6.07;1.77;;;;;;;24.19;47.23;99568.22;5090394;28;20044;-64
2022/05/16 05:58:59;;;;;;;19.33;2.17;;;;;;;24.20;47.14;99581.00;5090076;28;20043;-64
2022/05/16 06:01:25;;;;;;;10.93;2.03;;;;;;;24.22;46.83;99578.59;5090345;28;20227;-64
2022/05/16 06:03:51;;;;;;;8.30;1.90;;;;;;;24.38;46.56;99570.72;5090250;28;20040;-64
2022/05/16 06:06:16;;;;;;;5.82;1.60;;;;;;;24.37;46.41;99569.13;5090122;28;20173;-64
2022/05/16 06:08:42;;;;;;;6.05;1.75;;;;;;;24.43;46.23;99573.09;5095919;28;20035;-64
2022/05/16 06:11:08;;;;;;;9.50;1.50;;;;;;;24.45;46.11;99570.72;5092177;28;20097;-58
2022/05/16 06:13:34;;;;;;;7.70;1.65;;;;;;;24.45;45.87;99584.72;5110622;28;20533;-58
2022/05/16 06:15:59;;;;;;;5.22;1.20;;;;;;;24.42;45.95;99594.69;5110635;28;20056;-59
2022/05/16 06:18:25;;;;;;;4.45;1.55;;;;;;;24.47;45.68;99585.13;5110287;28;20490;-60
2022/05/16 06:20:51;;;;;;;8.70;1.50;;;;;;;24.44;45.80;99580.31;5089524;28;20131;-57
2022/05/16 06:23:17;;;;;;;3.63;1.42;;;;;;;24.43;45.68;99587.09;5084935;28;20115;-58
2022/05/16 06:25:44;;;;;;;4.40;1.38;;;;;;;24.48;45.67;99574.72;5088050;28;20090;-58
2022/05/16 06:28:17;;;;;;;5.63;1.38;;;;;;;24.49;45.55;99582.72;5090233;28;20043;-57
2022/05/16 06:30:45;;;;;;;2.42;1.30;;;;;;;24.54;45.64;99592.72;5087609;28;20039;-57
2022/05/16 06:33:11;;;;;;;5.60;1.30;;;;;;;24.52;45.77;99607.09;5071176;28;20040;-58
2022/05/16 06:35:37;;;;;;;3.47;1.20;;;;;;;24.49;45.88;99605.09;5069415;28;20053;-58
2022/05/16 06:38:18;;;;;;;2.33;1.20;;;;;;;24.51;46.05;99599.91;5074750;28;20076;-58
2022/05/16 06:40:46;;;;;;;2.15;1.30;;;;;;;24.51;45.90;99613.09;5070253;28;20500;-65
2022/05/16 06:43:12;;;;;;;2.92;1.40;;;;;;;24.52;46.02;99620.28;5072452;28;20105;-65
2022/05/16 06:45:38;;;;;;;2.53;1.30;;;;;;;24.53;45.89;99627.47;5070933;28;20040;-66
2022/05/16 06:48:05;;;;;;;2.10;1.10;;;;;;;24.49;46.12;99633.03;5088543;28;20416;-65
2022/05/16 06:50:32;;;;;;;2.63;1.27;;;;;;;24.51;46.23;99625.09;5084432;28;20086;-65
2022/05/16 06:52:58;;;;;;;2.13;1.30;;;;;;;24.50;46.21;99623.47;5075906;28;20048;-65
2022/05/16 06:55:24;;;;;;;2.97;1.60;;;;;;;24.51;46.20;99625.09;5082963;28;20040;-65
2022/05/16 06:57:50;;;;;;;2.10;1.20;;;;;;;24.48;46.41;99620.25;5060444;28;20106;-65
2022/05/16 07:00:16;;;;;;;2.17;1.27;;;;;;;24.48;46.72;99628.66;5079871;28;20032;-66
2022/05/16 07:02:41;;;;;;;2.20;1.30;;;;;;;24.43;46.79;99621.47;5070481;28;20068;-66
2022/05/16 07:05:07;;;;;;;2.00;1.20;;;;;;;24.48;46.99;99628.66;5074585;28;20045;-66
2022/05/16 07:07:33;;;;;;;2.53;1.20;;;;;;;24.50;47.68;99634.63;5068407;28;20040;-67
2022/05/16 07:09:59;;;;;;;3.03;1.60;;;;;;;24.52;48.23;99648.25;5080006;28;20127;-65
2022/05/16 07:12:25;;;;;;;2.60;1.45;;;;;;;24.52;47.71;99637.88;5062597;28;20050;-66
2022/05/16 07:14:50;;;;;;;1.85;1.17;;;;;;;24.53;48.17;99642.25;5091424;28;20039;-67
2022/05/16 07:17:16;;;;;;;2.58;1.40;;;;;;;24.53;48.48;99650.66;5081628;28;20098;-66
2022/05/16 07:19:41;;;;;;;1.92;1.20;;;;;;;24.53;48.56;99663.84;5089476;28;20043;-66
2022/05/16 07:22:12;;;;;;;2.80;1.42;;;;;;;24.50;48.35;99662.59;5089419;28;20032;-66
2022/05/16 07:24:42;;;;;;;4.72;1.23;;;;;;;24.52;48.08;99642.66;5086609;28;20040;-67
2022/05/16 07:29:53;;;;;;;2.45;1.42;;;;;;;24.53;47.97;99610.69;5076729;28;20082;-66
2022/05/16 07:32:18;;;;;;;2.47;1.52;;;;;;;24.56;48.22;99599.50;5074361;28;20880;-70
2022/05/16 07:34:44;;;;;;;2.17;1.27;;;;;;;24.56;48.29;99598.72;5075798;28;20043;-67
2022/05/16 07:37:09;;;;;;;2.38;1.42;;;;;;;24.56;48.36;99609.91;5070959;28;20045;-59
2022/05/16 07:39:35;;;;;;;2.75;1.30;;;;;;;24.58;48.20;99618.72;5075468;28;20036;-58
2022/05/16 07:42:02;;;;;;;6.13;1.40;;;;;;;24.59;48.33;99632.28;5076327;28;20040;-57
2022/05/16 07:44:28;;;;;;;2.50;1.50;;;;;;;24.57;48.13;99623.47;5073482;28;20047;-60
2022/05/16 07:46:53;;;;;;;2.67;1.30;;;;;;;24.60;48.21;99608.72;5078529;28;20036;-57
2022/05/16 07:49:20;;;;;;;2.67;1.40;;;;;;;24.56;48.68;99610.69;5086887;28;20056;-58
2022/05/16 07:51:45;;;;;;;3.90;1.52;;;;;;;24.58;48.68;99616.72;5100821;28;20423;-57
2022/05/16 07:54:10;;;;;;;3.70;1.30;;;;;;;24.60;48.40;99605.91;5083564;28;20107;-60
2022/05/16 07:56:36;;;;;;;2.63;1.40;;;;;;;24.61;48.81;99610.31;5100060;28;20051;-59
2022/05/16 07:59:02;;;;;;;2.53;1.50;;;;;;;24.58;48.75;99591.53;5087424;28;20040;-59
2022/05/16 08:01:28;;;;;;;2.85;1.38;;;;;;;24.62;49.36;99586.75;5087016;28;20082;-70
2022/05/16 08:03:53;;;;;;;2.30;1.38;;;;;;;24.59;49.37;99584.75;5082485;28;20076;-71
2022/05/16 08:06:19;;;;;;;2.03;1.30;;;;;;;24.63;49.08;99588.34;5084216;28;20060;-67
2022/05/16 08:11:28;;;;;;;2.50;1.50;;;;;;;24.62;49.00;99589.53;5079558;28;20047;-68
2022/05/16 08:13:53;;;;;;;2.17;1.30;;;;;;;24.65;48.57;99587.97;5081158;28;20048;-67
2022/05/16 08:16:19;;;;;;;3.45;1.50;;;;;;;24.67;48.49;99586.34;5074914;28;20044;-66
2022/05/16 08:18:44;;;;;;;2.67;1.60;;;;;;;24.67;48.34;99593.94;5073559;28;20219;-59
2022/05/16 08:21:12;;;;;;;2.17;1.42;;;;;;;24.67;47.58;99577.97;5078980;28;20042;-56
2022/05/16 08:23:38;;;;;;;2.55;1.40;;;;;;;24.66;47.70;99581.97;5080555;28;20044;-59
2022/05/16 08:26:04;;;;;;;3.30;1.40;;;;;;;24.71;47.06;99587.16;5082752;28;20055;-59
2022/05/16 08:28:31;;;;;;;3.03;1.40;;;;;;;24.73;47.13;99588.78;5081161;28;20465;-58
2022/05/16 08:30:56;;;;;;;3.25;1.48;;;;;;;24.73;47.28;99585.97;5085331;28;20048;-59
2022/05/16 08:33:22;;;;;;;2.33;1.30;;;;;;;24.74;46.78;99579.19;5084075;28;20048;-59
2022/05/16 08:39:52;;;;;;;3.25;1.40;;;;;;;24.76;46.71;99577.56;5085594;28;20063;-59
2022/05/16 08:41:19;;;;;;;2.35;1.30;;;;;;;24.78;46.12;99574.38;5082913;28;20102;-69
2022/05/16 08:43:56;;;;;;;2.47;1.38;;;;;;;24.79;45.90;99573.16;5086082;28;20054;-67
2022/05/16 08:46:33;;;;;;;2.55;1.30;;;;;;;24.77;46.25;99575.56;5086824;28;20052;-69
2022/05/16 08:49:27;;;;;;;2.13;1.20;;;;;;;24.77;45.83;99578.38;5074449;28;20134;-65
2022/05/16 08:52:10;;;;;;;2.60;1.25;;;;;;;24.79;46.04;99568.41;5082185;28;20122;-69
2022/05/16 08:55:14;;;;;;;2.42;1.27;;;;;;;24.84;45.77;99575.59;5079114;28;20036;-69
2022/05/16 08:57:46;;;;;;;1.90;1.10;;;;;;;24.83;45.65;99579.59;5082023;28;20039;-68
2022/05/16 09:00:21;;;;;;;2.42;1.20;;;;;;;24.83;45.49;99583.19;5084993;28;20045;-59
2022/05/16 09:02:50;;;;;;;2.92;1.30;;;;;;;24.89;45.28;99583.59;5076347;28;20048;-59
2022/05/16 09:05:26;;;;;;;1.98;1.15;;;;;;;24.84;45.31;99576.38;5074892;28;20060;-68
2022/05/16 09:07:54;;;;;;;2.00;1.25;;;;;;;24.87;45.11;99580.41;5086610;28;20090;-70
2022/05/16 09:10:25;;;;;;;2.28;1.20;;;;;;;24.86;45.08;99575.97;5089690;28;20426;-69
2022/05/16 09:13:03;;;;;;;2.75;1.35;;;;;;;24.88;45.41;99576.41;5085436;28;20056;-69
2022/05/16 09:15:41;;;;;;;2.88;1.40;;;;;;;24.89;45.23;99581.59;5080547;28;20054;-59
2022/05/16 09:18:41;;;;;;;1.95;1.38;;;;;;;24.87;45.00;99586.78;5082569;28;20173;-60
2022/05/16 09:21:18;;;;;;;2.15;1.20;;;;;;;24.88;45.04;99576.41;5061095;28;20500;-60
2022/05/16 09:23:53;;;;;;;2.40;1.25;;;;;;;24.94;44.66;99577.59;5083473;28;20056;-60
2022/05/16 09:26:43;;;;;;;2.30;1.08;;;;;;;24.90;45.15;99574.78;5084962;28;20120;-60
2022/05/16 09:29:35;;;;;;;2.92;1.35;;;;;;;24.88;45.03;99570.81;5083199;28;20047;-59
2022/05/16 09:32:10;;;;;;;2.27;1.23;;;;;;;24.90;44.81;99574.00;5085789;28;20059;-59
2022/05/16 09:34:35;;;;;;;2.70;1.23;;;;;;;24.94;44.71;99563.63;5078507;28;20470;-58
2022/05/16 09:37:01;;;;;;;2.35;1.20;;;;;;;24.95;44.64;99562.41;5082867;28;20036;-58
2022/05/16 09:39:31;;;;;;;2.92;1.25;;;;;;;24.97;44.72;99560.00;5087262;28;20081;-58
2022/05/16 09:42:26;;;;;;;4.78;1.52;;;;;;;24.93;44.92;99562.00;5080829;28;20060;-59
2022/05/16 09:44:54;;;;;;;2.45;1.20;;;;;;;24.97;44.90;99560.00;5089367;28;20047;-59
2022/05/16 09:47:28;;;;;;;2.65;1.30;;;;;;;24.98;44.88;99558.78;5085490;28;20082;-60
2022/05/16 09:50:02;;;;;;;2.72;1.60;;;;;;;25.01;44.65;99555.22;5086666;28;20118;-57
2022/05/16 09:52:33;;;;;;;3.55;1.60;;;;;;;24.95;44.88;99548.41;5086303;28;20061;-57
2022/05/16 09:55:03;;;;;;;2.50;1.30;;;;;;;24.94;44.85;99546.81;5095701;28;20054;-56
2022/05/16 09:57:32;;;;;;;4.63;1.73;;;;;;;24.99;44.96;99549.19;5088221;28;20542;-69
2022/05/16 10:00:15;;;;;;;2.00;1.30;;;;;;;24.99;44.81;99543.59;5092880;28;20083;-67
2022/05/16 10:02:42;;;;;;;2.10;1.33;;;;;;;25.05;44.42;99541.22;5095568;28;20051;-68
2022/05/16 10:05:19;;;;;;;4.35;1.33;;;;;;;25.02;44.85;99539.22;5108796;28;20458;-68
2022/05/16 10:07:50;;;;;;;2.00;1.48;;;;;;;25.08;44.44;99544.06;5103956;28;20116;-68
2022/05/16 10:10:20;;;;;;;2.67;1.50;;;;;;;25.06;44.44;99538.03;5107037;28;20059;-66
2022/05/16 10:12:47;;;;;;;2.65;1.35;;;;;;;25.12;44.38;99536.44;5084065;28;20054;-68
2022/05/16 10:15:13;;;;;;;2.08;1.10;;;;;;;25.15;44.58;99538.44;5106894;28;20518;-68
2022/05/16 10:17:42;;;;;;;1.98;1.33;;;;;;;25.13;44.44;99535.22;5092089;28;20082;-69
2022/05/16 10:20:20;;;;;;;2.45;1.20;;;;;;;25.09;44.61;99528.84;5085491;28;20079;-67
2022/05/16 10:22:46;;;;;;;2.97;1.40;;;;;;;25.16;44.63;99525.25;5094969;28;20093;-70
2022/05/16 10:25:22;;;;;;;2.40;1.38;;;;;;;25.16;44.38;99526.03;5090694;28;20043;-69
2022/05/16 10:27:51;;;;;;;2.15;1.55;;;;;;;25.16;44.57;99523.25;5088875;28;20044;-69
2022/05/16 10:30:21;;;;;;;2.22;1.45;;;;;;;25.17;44.67;99524.03;5081857;28;20119;-70
2022/05/16 10:35:43;;;;;;;3.47;1.52;;;;;;;25.24;44.52;99512.84;5084329;28;20043;-70
2022/05/16 10:38:21;;;;;;;2.80;1.42;;;;;;;25.23;44.71;99509.25;5095110;28;20036;-67
2022/05/16 10:40:54;;;;;;;4.43;1.80;;;;;;;25.25;44.89;99508.81;5087831;28;20522;-69
2022/05/16 10:43:29;;;;;;;2.75;1.50;;;;;;;25.33;44.46;99501.22;5096830;28;20063;-68
2022/05/16 10:46:01;;;;;;;2.55;1.52;;;;;;;25.34;44.66;99492.41;5094783;28;20052;-67
2022/05/16 10:48:47;;;;;;;4.03;1.63;;;;;;;25.34;44.35;99502.81;5101978;28;20043;-66
2022/05/16 10:51:18;;;;;;;3.38;1.33;;;;;;;25.35;44.57;99493.19;5080098;28;20298;-66
2022/05/16 10:54:05;;;;;;;2.38;1.30;;;;;;;25.33;44.37;99485.22;5099002;28;20372;-66
2022/05/16 10:56:52;;;;;;;5.00;1.70;;;;;;;25.27;44.51;99489.63;5104414;28;20055;-66
2022/05/16 10:59:48;;;;;;;3.25;1.50;;;;;;;25.25;44.54;99481.63;5089555;28;20070;-66
2022/05/16 11:02:52;;;;;;;2.20;1.27;;;;;;;25.25;44.98;99480.84;5107644;28;20047;-66
2022/05/16 11:05:26;;;;;;;2.78;1.27;;;;;;;25.23;44.96;99467.25;5104214;28;20149;-66
2022/05/16 11:08:21;;;;;;;2.35;1.20;;;;;;;25.23;44.77;99466.44;5101909;28;20090;-66
2022/05/16 11:11:11;;;;;;;2.38;1.40;;;;;;;25.25;44.90;99466.84;5093639;28;20131;-66
2022/05/16 11:13:45;;;;;;;2.30;1.30;;;;;;;25.23;44.94;99458.84;5098581;28;20304;-66
2022/05/16 11:16:16;;;;;;;2.45;1.20;;;;;;;25.24;44.66;99456.84;5104276;28;20395;-66
2022/05/16 11:18:51;;;;;;;2.05;1.30;;;;;;;25.23;44.92;99455.25;5108576;28;20055;-59
2022/05/16 11:21:38;;;;;;;1.85;1.25;;;;;;;25.22;44.59;99453.66;5103469;28;20047;-59
2022/05/16 11:24:16;;;;;;;2.45;1.17;;;;;;;25.26;44.61;99457.22;5091986;28;20450;-59
2022/05/16 11:26:55;;;;;;;2.17;1.30;;;;;;;25.23;44.71;99447.66;5087736;28;20080;-59
2022/05/16 11:29:32;;;;;;;1.88;1.17;;;;;;;25.25;44.33;99445.22;5102625;28;20047;-58
2022/05/16 11:31:58;;;;;;;1.80;1.20;;;;;;;25.30;44.34;99440.44;5084239;28;20060;-58
2022/05/16 11:34:40;;;;;;;1.90;1.25;;;;;;;25.26;44.42;99434.84;5096207;28;20044;-58
2022/05/16 11:37:08;;;;;;;3.13;1.58;;;;;;;25.29;44.23;99439.63;5092098;28;20044;-60
2022/05/16 11:39:46;;;;;;;1.98;1.20;;;;;;;25.29;44.25;99427.63;5097706;28;20048;-59
2022/05/16 11:42:40;;;;;;;1.92;1.27;;;;;;;25.29;44.35;99430.41;5089104;28;20048;-59
2022/05/16 11:45:46;;;;;;;2.00;1.17;;;;;;;25.32;44.07;99427.63;5080861;28;20432;-59
2022/05/16 11:48:36;;;;;;;2.15;1.30;;;;;;;25.32;44.24;99421.22;5082708;28;20040;-59
2022/05/16 11:51:03;;;;;;;2.20;1.30;;;;;;;25.38;44.07;99422.41;5089578;28;20046;-58
2022/05/16 11:53:40;;;;;;;2.22;1.33;;;;;;;25.48;43.99;99415.94;5090787;28;20051;-58
2022/05/16 12:02:16;;;;;;;6.80;1.50;;;;;;;25.50;44.13;99419.97;5104567;28;20415;-60
2022/05/16 12:04:47;;;;;;;2.88;1.20;;;;;;;25.49;44.02;99414.75;5108060;28;20047;-67
2022/05/16 12:07:44;;;;;;;1.85;1.20;;;;;;;25.49;44.28;99406.34;5096838;28;20089;-66
2022/05/16 12:10:10;;;;;;;2.05;1.45;;;;;;;25.50;44.24;99405.94;5078612;28;20059;-68
2022/05/16 12:12:41;;;;;;;2.13;1.38;;;;;;;25.47;44.50;99405.94;5093491;28;20442;-67
2022/05/16 12:15:17;;;;;;;1.73;1.20;;;;;;;25.49;44.60;99397.94;5072124;28;20535;-60